sensor_id;sensor_type;location;lat;lon;timestamp;temperature;humidity
9446;DHT22;4761;49.490;10.908;2022-10-16T00:00:38;20.60;65.70
9446;DHT22;4761;49.490;10.908;2022-10-16T00:03:04;20.60;65.60
9446;DHT22;4761;49.490;10.908;2022-10-16T00:05:30;20.60;65.60
9446;DHT22;4761;49.490;10.908;2022-10-16T00:07:56;20.60;65.60
9446;DHT22;4761;49.490;10.908;2022-10-16T00:10:22;20.60;65.60
9446;DHT22;4761;49.490;10.908;2022-10-16T00:12:47;20.60;65.60
9446;DHT22;4761;49.490;10.908;2022-10-16T00:15:13;20.60;65.60
9446;DHT22;4761;49.490;10.908;2022-10-16T00:17:39;20.60;65.60
9446;DHT22;4761;49.490;10.908;2022-10-16T00:20:05;20.60;65.60
9446;DHT22;4761;49.490;10.908;2022-10-16T00:22:30;20.60;65.50
9446;DHT22;4761;49.490;10.908;2022-10-16T00:24:56;20.60;65.50
9446;DHT22;4761;49.490;10.908;2022-10-16T00:27:22;20.60;65.50
9446;DHT22;4761;49.490;10.908;2022-10-16T00:29:51;20.60;65.50
9446;DHT22;4761;49.490;10.908;2022-10-16T00:32:17;20.60;65.50
9446;DHT22;4761;49.490;10.908;2022-10-16T00:34:43;20.60;65.50
9446;DHT22;4761;49.490;10.908;2022-10-16T00:37:08;20.60;65.50
9446;DHT22;4761;49.490;10.908;2022-10-16T00:39:34;20.60;65.40
9446;DHT22;4761;49.490;10.908;2022-10-16T00:41:59;20.60;65.50
9446;DHT22;4761;49.490;10.908;2022-10-16T00:47:29;20.60;66.40
9446;DHT22;4761;49.490;10.908;2022-10-16T00:50:08;20.60;65.80
9446;DHT22;4761;49.490;10.908;2022-10-16T00:52:34;20.60;66.60
9446;DHT22;4761;49.490;10.908;2022-10-16T00:55:01;20.60;65.90
9446;DHT22;4761;49.490;10.908;2022-10-16T00:57:28;20.60;66.00
9446;DHT22;4761;49.490;10.908;2022-10-16T00:59:54;20.60;66.00
9446;DHT22;4761;49.490;10.908;2022-10-16T01:02:19;20.60;65.90
9446;DHT22;4761;49.490;10.908;2022-10-16T01:04:50;20.60;65.90
9446;DHT22;4761;49.490;10.908;2022-10-16T01:12:57;20.60;65.80
9446;DHT22;4761;49.490;10.908;2022-10-16T01:20:34;20.60;66.10
9446;DHT22;4761;49.490;10.908;2022-10-16T01:23:09;20.60;66.10
9446;DHT22;4761;49.490;10.908;2022-10-16T01:28:21;20.60;65.90
9446;DHT22;4761;49.490;10.908;2022-10-16T01:30:51;20.60;66.00
9446;DHT22;4761;49.490;10.908;2022-10-16T01:33:26;20.60;66.00
9446;DHT22;4761;49.490;10.908;2022-10-16T01:35:56;20.60;66.10
9446;DHT22;4761;49.490;10.908;2022-10-16T01:38:30;20.60;66.10
9446;DHT22;4761;49.490;10.908;2022-10-16T01:41:03;20.60;66.00
9446;DHT22;4761;49.490;10.908;2022-10-16T01:43:35;20.60;66.10
9446;DHT22;4761;49.490;10.908;2022-10-16T01:46:02;20.60;66.10
9446;DHT22;4761;49.490;10.908;2022-10-16T01:48:28;20.60;66.20
9446;DHT22;4761;49.490;10.908;2022-10-16T01:51:03;20.60;66.20
9446;DHT22;4761;49.490;10.908;2022-10-16T01:53:30;20.60;66.10
9446;DHT22;4761;49.490;10.908;2022-10-16T01:55:58;20.60;66.10
9446;DHT22;4761;49.490;10.908;2022-10-16T01:58:25;20.60;66.10
9446;DHT22;4761;49.490;10.908;2022-10-16T02:00:54;20.60;66.10
9446;DHT22;4761;49.490;10.908;2022-10-16T02:03:20;20.60;66.00
9446;DHT22;4761;49.490;10.908;2022-10-16T02:05:53;20.60;66.00
9446;DHT22;4761;49.490;10.908;2022-10-16T02:08:20;20.60;66.10
9446;DHT22;4761;49.490;10.908;2022-10-16T02:10:47;20.60;66.10
9446;DHT22;4761;49.490;10.908;2022-10-16T02:13:17;20.60;66.00
9446;DHT22;4761;49.490;10.908;2022-10-16T02:15:44;20.60;66.00
9446;DHT22;4761;49.490;10.908;2022-10-16T02:18:10;20.60;66.00
9446;DHT22;4761;49.490;10.908;2022-10-16T02:20:43;20.60;66.10
9446;DHT22;4761;49.490;10.908;2022-10-16T02:23:24;20.60;66.00
9446;DHT22;4761;49.490;10.908;2022-10-16T02:25:54;20.60;66.10
9446;DHT22;4761;49.490;10.908;2022-10-16T02:28:26;20.60;66.10
9446;DHT22;4761;49.490;10.908;2022-10-16T02:30:58;20.60;66.10
9446;DHT22;4761;49.490;10.908;2022-10-16T02:33:26;20.60;66.10
9446;DHT22;4761;49.490;10.908;2022-10-16T02:35:53;20.60;66.20
9446;DHT22;4761;49.490;10.908;2022-10-16T02:38:20;20.60;66.20
9446;DHT22;4761;49.490;10.908;2022-10-16T02:40:46;20.60;66.20
9446;DHT22;4761;49.490;10.908;2022-10-16T02:43:12;20.60;66.30
9446;DHT22;4761;49.490;10.908;2022-10-16T02:45:38;20.60;66.20
9446;DHT22;4761;49.490;10.908;2022-10-16T02:48:04;20.60;66.20
9446;DHT22;4761;49.490;10.908;2022-10-16T02:50:30;20.60;66.20
9446;DHT22;4761;49.490;10.908;2022-10-16T02:52:55;20.60;66.20
9446;DHT22;4761;49.490;10.908;2022-10-16T02:55:21;20.60;66.20
9446;DHT22;4761;49.490;10.908;2022-10-16T02:57:47;20.60;66.30
9446;DHT22;4761;49.490;10.908;2022-10-16T03:00:14;20.60;66.30
9446;DHT22;4761;49.490;10.908;2022-10-16T03:02:40;20.60;66.30
9446;DHT22;4761;49.490;10.908;2022-10-16T03:05:07;20.60;66.30
9446;DHT22;4761;49.490;10.908;2022-10-16T03:07:32;20.50;66.30
9446;DHT22;4761;49.490;10.908;2022-10-16T03:09:58;20.60;66.40
9446;DHT22;4761;49.490;10.908;2022-10-16T03:12:26;20.60;66.50
9446;DHT22;4761;49.490;10.908;2022-10-16T03:14:52;20.60;66.40
9446;DHT22;4761;49.490;10.908;2022-10-16T03:17:18;20.50;66.30
9446;DHT22;4761;49.490;10.908;2022-10-16T03:19:44;20.60;66.50
9446;DHT22;4761;49.490;10.908;2022-10-16T03:22:10;20.50;66.30
9446;DHT22;4761;49.490;10.908;2022-10-16T03:24:35;20.50;66.40
9446;DHT22;4761;49.490;10.908;2022-10-16T03:27:01;20.60;66.50
9446;DHT22;4761;49.490;10.908;2022-10-16T03:29:26;20.60;66.50
9446;DHT22;4761;49.490;10.908;2022-10-16T03:31:53;20.60;66.50
9446;DHT22;4761;49.490;10.908;2022-10-16T03:34:18;20.60;66.30
9446;DHT22;4761;49.490;10.908;2022-10-16T03:36:44;20.60;66.30
9446;DHT22;4761;49.490;10.908;2022-10-16T03:39:09;20.60;66.10
9446;DHT22;4761;49.490;10.908;2022-10-16T03:41:35;20.70;66.20
9446;DHT22;4761;49.490;10.908;2022-10-16T03:44:00;20.70;66.00
9446;DHT22;4761;49.490;10.908;2022-10-16T03:46:26;20.70;66.00
9446;DHT22;4761;49.490;10.908;2022-10-16T03:48:51;20.70;66.00
9446;DHT22;4761;49.490;10.908;2022-10-16T03:51:17;20.60;65.90
9446;DHT22;4761;49.490;10.908;2022-10-16T03:53:42;20.60;65.90
9446;DHT22;4761;49.490;10.908;2022-10-16T03:56:08;20.60;66.00
9446;DHT22;4761;49.490;10.908;2022-10-16T03:58:33;20.60;66.20
9446;DHT22;4761;49.490;10.908;2022-10-16T04:00:59;20.60;66.10
9446;DHT22;4761;49.490;10.908;2022-10-16T04:03:24;20.60;66.20
9446;DHT22;4761;49.490;10.908;2022-10-16T04:05:50;20.60;66.20
9446;DHT22;4761;49.490;10.908;2022-10-16T04:08:16;20.60;66.20
9446;DHT22;4761;49.490;10.908;2022-10-16T04:10:44;20.60;66.30
9446;DHT22;4761;49.490;10.908;2022-10-16T04:13:11;20.60;66.30
9446;DHT22;4761;49.490;10.908;2022-10-16T04:15:36;20.60;66.20
9446;DHT22;4761;49.490;10.908;2022-10-16T04:18:02;20.60;66.20
9446;DHT22;4761;49.490;10.908;2022-10-16T04:20:27;20.60;66.20
9446;DHT22;4761;49.490;10.908;2022-10-16T04:22:53;20.60;66.20
9446;DHT22;4761;49.490;10.908;2022-10-16T04:25:18;20.60;66.30
9446;DHT22;4761;49.490;10.908;2022-10-16T04:27:44;20.60;66.30
9446;DHT22;4761;49.490;10.908;2022-10-16T04:30:09;20.60;66.30
9446;DHT22;4761;49.490;10.908;2022-10-16T04:32:35;20.60;66.30
9446;DHT22;4761;49.490;10.908;2022-10-16T04:35:00;20.60;66.40
9446;DHT22;4761;49.490;10.908;2022-10-16T04:37:27;20.60;66.40
9446;DHT22;4761;49.490;10.908;2022-10-16T04:39:53;20.60;66.40
9446;DHT22;4761;49.490;10.908;2022-10-16T04:42:19;20.60;66.40
9446;DHT22;4761;49.490;10.908;2022-10-16T04:44:45;20.60;66.40
9446;DHT22;4761;49.490;10.908;2022-10-16T04:47:10;20.60;66.40
9446;DHT22;4761;49.490;10.908;2022-10-16T04:49:36;20.50;66.30
9446;DHT22;4761;49.490;10.908;2022-10-16T04:52:02;20.50;66.30
9446;DHT22;4761;49.490;10.908;2022-10-16T04:54:28;20.50;66.30
9446;DHT22;4761;49.490;10.908;2022-10-16T04:56:53;20.50;66.30
9446;DHT22;4761;49.490;10.908;2022-10-16T04:59:20;20.50;66.30
9446;DHT22;4761;49.490;10.908;2022-10-16T05:01:46;20.50;66.30
9446;DHT22;4761;49.490;10.908;2022-10-16T05:04:11;20.50;66.30
9446;DHT22;4761;49.490;10.908;2022-10-16T05:06:37;20.50;66.30
9446;DHT22;4761;49.490;10.908;2022-10-16T05:09:07;20.50;66.30
9446;DHT22;4761;49.490;10.908;2022-10-16T05:11:33;20.50;66.30
9446;DHT22;4761;49.490;10.908;2022-10-16T05:13:59;20.60;66.40
9446;DHT22;4761;49.490;10.908;2022-10-16T05:16:24;20.60;66.30
9446;DHT22;4761;49.490;10.908;2022-10-16T05:18:51;20.60;66.30
9446;DHT22;4761;49.490;10.908;2022-10-16T05:21:17;20.60;66.20
9446;DHT22;4761;49.490;10.908;2022-10-16T05:23:42;20.50;66.10
9446;DHT22;4761;49.490;10.908;2022-10-16T05:26:08;20.60;66.30
9446;DHT22;4761;49.490;10.908;2022-10-16T05:28:33;20.50;66.20
9446;DHT22;4761;49.490;10.908;2022-10-16T05:30:59;20.50;66.10
9446;DHT22;4761;49.490;10.908;2022-10-16T05:33:28;20.60;66.10
9446;DHT22;4761;49.490;10.908;2022-10-16T05:35:54;20.50;66.10
9446;DHT22;4761;49.490;10.908;2022-10-16T05:38:19;20.50;66.10
9446;DHT22;4761;49.490;10.908;2022-10-16T05:40:51;20.50;66.00
9446;DHT22;4761;49.490;10.908;2022-10-16T05:43:17;20.50;65.90
9446;DHT22;4761;49.490;10.908;2022-10-16T05:45:43;20.50;66.00
9446;DHT22;4761;49.490;10.908;2022-10-16T05:48:09;20.50;65.90
9446;DHT22;4761;49.490;10.908;2022-10-16T05:50:34;20.50;65.90
9446;DHT22;4761;49.490;10.908;2022-10-16T05:53:00;20.60;66.00
9446;DHT22;4761;49.490;10.908;2022-10-16T05:55:25;20.50;65.90
9446;DHT22;4761;49.490;10.908;2022-10-16T05:57:54;20.50;66.00
9446;DHT22;4761;49.490;10.908;2022-10-16T06:00:19;20.50;66.00
9446;DHT22;4761;49.490;10.908;2022-10-16T06:02:45;20.50;66.10
9446;DHT22;4761;49.490;10.908;2022-10-16T06:05:11;20.50;66.10
9446;DHT22;4761;49.490;10.908;2022-10-16T06:07:36;20.50;66.10
9446;DHT22;4761;49.490;10.908;2022-10-16T06:10:03;20.50;66.10
9446;DHT22;4761;49.490;10.908;2022-10-16T06:12:29;20.50;66.00
9446;DHT22;4761;49.490;10.908;2022-10-16T06:14:55;20.50;65.90
9446;DHT22;4761;49.490;10.908;2022-10-16T06:17:20;20.50;65.90
9446;DHT22;4761;49.490;10.908;2022-10-16T06:19:46;20.50;66.00
9446;DHT22;4761;49.490;10.908;2022-10-16T06:22:11;20.50;66.10
9446;DHT22;4761;49.490;10.908;2022-10-16T06:24:37;20.50;66.10
9446;DHT22;4761;49.490;10.908;2022-10-16T06:27:03;20.40;66.60
9446;DHT22;4761;49.490;10.908;2022-10-16T06:29:29;20.30;67.20
9446;DHT22;4761;49.490;10.908;2022-10-16T06:31:55;20.40;67.70
9446;DHT22;4761;49.490;10.908;2022-10-16T06:34:20;20.30;67.80
9446;DHT22;4761;49.490;10.908;2022-10-16T06:36:46;20.40;68.00
9446;DHT22;4761;49.490;10.908;2022-10-16T06:39:11;20.40;68.00
9446;DHT22;4761;49.490;10.908;2022-10-16T06:41:37;20.50;68.00
9446;DHT22;4761;49.490;10.908;2022-10-16T06:44:05;20.60;68.10
9446;DHT22;4761;49.490;10.908;2022-10-16T06:46:32;20.60;67.90
9446;DHT22;4761;49.490;10.908;2022-10-16T06:48:57;20.60;67.80
9446;DHT22;4761;49.490;10.908;2022-10-16T06:51:24;20.70;67.70
9446;DHT22;4761;49.490;10.908;2022-10-16T06:53:52;20.70;67.50
9446;DHT22;4761;49.490;10.908;2022-10-16T06:56:23;20.70;67.40
9446;DHT22;4761;49.490;10.908;2022-10-16T06:58:49;20.80;67.30
9446;DHT22;4761;49.490;10.908;2022-10-16T07:01:17;20.80;67.10
9446;DHT22;4761;49.490;10.908;2022-10-16T07:03:44;20.80;67.00
9446;DHT22;4761;49.490;10.908;2022-10-16T07:06:12;20.90;66.90
9446;DHT22;4761;49.490;10.908;2022-10-16T07:08:39;20.90;66.80
9446;DHT22;4761;49.490;10.908;2022-10-16T07:11:10;20.90;66.60
9446;DHT22;4761;49.490;10.908;2022-10-16T07:13:37;20.90;66.50
9446;DHT22;4761;49.490;10.908;2022-10-16T07:16:10;20.90;66.40
9446;DHT22;4761;49.490;10.908;2022-10-16T07:18:36;21.00;66.30
9446;DHT22;4761;49.490;10.908;2022-10-16T07:21:09;21.00;66.20
9446;DHT22;4761;49.490;10.908;2022-10-16T07:23:35;21.00;66.10
9446;DHT22;4761;49.490;10.908;2022-10-16T07:26:02;21.00;65.90
9446;DHT22;4761;49.490;10.908;2022-10-16T07:28:28;21.00;65.80
9446;DHT22;4761;49.490;10.908;2022-10-16T07:30:53;21.00;65.70
9446;DHT22;4761;49.490;10.908;2022-10-16T07:33:19;21.00;65.60
9446;DHT22;4761;49.490;10.908;2022-10-16T07:35:49;21.00;65.50
9446;DHT22;4761;49.490;10.908;2022-10-16T07:38:15;21.10;65.60
9446;DHT22;4761;49.490;10.908;2022-10-16T07:40:41;21.10;65.50
9446;DHT22;4761;49.490;10.908;2022-10-16T07:43:06;21.10;65.40
9446;DHT22;4761;49.490;10.908;2022-10-16T07:45:32;21.10;65.40
9446;DHT22;4761;49.490;10.908;2022-10-16T07:47:57;21.10;65.30
9446;DHT22;4761;49.490;10.908;2022-10-16T07:50:23;21.10;65.30
9446;DHT22;4761;49.490;10.908;2022-10-16T07:52:48;21.10;65.30
9446;DHT22;4761;49.490;10.908;2022-10-16T07:55:14;21.10;65.20
9446;DHT22;4761;49.490;10.908;2022-10-16T07:57:39;21.10;65.10
9446;DHT22;4761;49.490;10.908;2022-10-16T08:00:05;21.10;65.10
9446;DHT22;4761;49.490;10.908;2022-10-16T08:02:31;21.10;65.00
9446;DHT22;4761;49.490;10.908;2022-10-16T08:04:57;21.20;64.40
9446;DHT22;4761;49.490;10.908;2022-10-16T08:07:22;21.30;64.30
9446;DHT22;4761;49.490;10.908;2022-10-16T08:09:51;21.30;64.50
9446;DHT22;4761;49.490;10.908;2022-10-16T08:12:21;21.20;64.70
9446;DHT22;4761;49.490;10.908;2022-10-16T08:14:47;21.10;65.00
9446;DHT22;4761;49.490;10.908;2022-10-16T08:17:14;21.00;65.10
9446;DHT22;4761;49.490;10.908;2022-10-16T08:19:39;21.00;65.40
9446;DHT22;4761;49.490;10.908;2022-10-16T08:22:04;20.90;65.50
9446;DHT22;4761;49.490;10.908;2022-10-16T08:24:30;20.90;65.70
9446;DHT22;4761;49.490;10.908;2022-10-16T08:26:56;20.80;65.70
9446;DHT22;4761;49.490;10.908;2022-10-16T08:29:22;20.80;65.90
9446;DHT22;4761;49.490;10.908;2022-10-16T08:31:47;20.80;66.00
9446;DHT22;4761;49.490;10.908;2022-10-16T08:34:13;20.80;66.20
9446;DHT22;4761;49.490;10.908;2022-10-16T08:36:38;20.80;66.20
9446;DHT22;4761;49.490;10.908;2022-10-16T08:39:04;20.80;66.30
9446;DHT22;4761;49.490;10.908;2022-10-16T08:42:34;20.80;66.30
9446;DHT22;4761;49.490;10.908;2022-10-16T08:44:42;20.90;66.40
9446;DHT22;4761;49.490;10.908;2022-10-16T08:49:42;20.90;66.40
9446;DHT22;4761;49.490;10.908;2022-10-16T08:52:13;20.90;67.10
9446;DHT22;4761;49.490;10.908;2022-10-16T08:54:42;20.90;66.40
9446;DHT22;4761;49.490;10.908;2022-10-16T08:57:13;20.90;66.50
9446;DHT22;4761;49.490;10.908;2022-10-16T08:59:39;20.90;66.50
9446;DHT22;4761;49.490;10.908;2022-10-16T09:02:22;20.90;66.50
9446;DHT22;4761;49.490;10.908;2022-10-16T09:07:35;20.90;66.70
9446;DHT22;4761;49.490;10.908;2022-10-16T09:10:37;20.90;66.70
9446;DHT22;4761;49.490;10.908;2022-10-16T09:13:26;20.90;66.80
9446;DHT22;4761;49.490;10.908;2022-10-16T09:19:03;20.90;66.80
9446;DHT22;4761;49.490;10.908;2022-10-16T09:21:42;20.90;66.90
9446;DHT22;4761;49.490;10.908;2022-10-16T09:24:15;20.90;66.90
9446;DHT22;4761;49.490;10.908;2022-10-16T09:26:42;20.90;66.90
9446;DHT22;4761;49.490;10.908;2022-10-16T09:29:11;20.90;66.90
9446;DHT22;4761;49.490;10.908;2022-10-16T09:31:37;20.90;66.90
9446;DHT22;4761;49.490;10.908;2022-10-16T09:34:04;20.90;66.90
9446;DHT22;4761;49.490;10.908;2022-10-16T09:36:39;20.90;66.90
9446;DHT22;4761;49.490;10.908;2022-10-16T09:39:08;20.90;66.80
9446;DHT22;4761;49.490;10.908;2022-10-16T09:41:36;20.90;66.70
9446;DHT22;4761;49.490;10.908;2022-10-16T09:44:04;20.90;66.70
9446;DHT22;4761;49.490;10.908;2022-10-16T09:46:35;20.90;66.80
9446;DHT22;4761;49.490;10.908;2022-10-16T09:49:03;21.00;66.80
9446;DHT22;4761;49.490;10.908;2022-10-16T09:51:31;21.00;66.80
9446;DHT22;4761;49.490;10.908;2022-10-16T09:54:02;21.00;66.80
9446;DHT22;4761;49.490;10.908;2022-10-16T09:56:30;20.90;66.80
9446;DHT22;4761;49.490;10.908;2022-10-16T09:59:03;21.00;66.90
9446;DHT22;4761;49.490;10.908;2022-10-16T10:01:39;21.00;66.90
9446;DHT22;4761;49.490;10.908;2022-10-16T10:04:05;21.00;67.00
9446;DHT22;4761;49.490;10.908;2022-10-16T10:06:34;21.00;66.90
9446;DHT22;4761;49.490;10.908;2022-10-16T10:09:26;21.00;66.90
9446;DHT22;4761;49.490;10.908;2022-10-16T10:12:02;21.00;66.90
9446;DHT22;4761;49.490;10.908;2022-10-16T10:14:37;21.00;67.00
9446;DHT22;4761;49.490;10.908;2022-10-16T10:19:48;21.00;67.00
9446;DHT22;4761;49.490;10.908;2022-10-16T10:33:27;21.00;67.20
9446;DHT22;4761;49.490;10.908;2022-10-16T10:36:05;21.00;67.20
9446;DHT22;4761;49.490;10.908;2022-10-16T10:41:34;21.00;67.30
9446;DHT22;4761;49.490;10.908;2022-10-16T10:44:11;21.00;67.30
9446;DHT22;4761;49.490;10.908;2022-10-16T10:46:48;21.00;67.20
9446;DHT22;4761;49.490;10.908;2022-10-16T10:52:26;21.10;67.10
9446;DHT22;4761;49.490;10.908;2022-10-16T10:55:16;21.10;67.30
9446;DHT22;4761;49.490;10.908;2022-10-16T11:05:59;21.10;67.20
9446;DHT22;4761;49.490;10.908;2022-10-16T11:08:40;21.10;67.20
9446;DHT22;4761;49.490;10.908;2022-10-16T11:11:13;21.10;67.20
9446;DHT22;4761;49.490;10.908;2022-10-16T11:13:55;21.20;67.40
9446;DHT22;4761;49.490;10.908;2022-10-16T11:16:31;21.20;67.20
9446;DHT22;4761;49.490;10.908;2022-10-16T11:25:18;21.10;66.90
9446;DHT22;4761;49.490;10.908;2022-10-16T11:27:57;21.20;67.10
9446;DHT22;4761;49.490;10.908;2022-10-16T11:30:30;21.20;67.10
9446;DHT22;4761;49.490;10.908;2022-10-16T11:35:57;21.20;66.70
9446;DHT22;4761;49.490;10.908;2022-10-16T11:38:35;21.20;66.90
9446;DHT22;4761;49.490;10.908;2022-10-16T11:47:26;21.20;67.30
9446;DHT22;4761;49.490;10.908;2022-10-16T11:50:06;21.20;67.30
9446;DHT22;4761;49.490;10.908;2022-10-16T11:52:44;21.20;67.30
9446;DHT22;4761;49.490;10.908;2022-10-16T11:55:20;21.30;67.50
9446;DHT22;4761;49.490;10.908;2022-10-16T11:57:52;21.20;67.50
9446;DHT22;4761;49.490;10.908;2022-10-16T12:00:28;21.30;67.60
9446;DHT22;4761;49.490;10.908;2022-10-16T12:03:04;21.30;67.60
9446;DHT22;4761;49.490;10.908;2022-10-16T12:08:14;21.30;67.60
9446;DHT22;4761;49.490;10.908;2022-10-16T12:10:42;21.30;67.60
9446;DHT22;4761;49.490;10.908;2022-10-16T12:13:31;21.30;67.50
9446;DHT22;4761;49.490;10.908;2022-10-16T12:18:42;21.40;67.40
9446;DHT22;4761;49.490;10.908;2022-10-16T12:21:08;21.40;67.40
9446;DHT22;4761;49.490;10.908;2022-10-16T12:23:52;21.40;67.20
9446;DHT22;4761;49.490;10.908;2022-10-16T12:26:31;21.40;67.10
9446;DHT22;4761;49.490;10.908;2022-10-16T12:29:53;21.40;67.00
9446;DHT22;4761;49.490;10.908;2022-10-16T12:31:58;21.40;67.00
9446;DHT22;4761;49.490;10.908;2022-10-16T12:34:39;21.40;67.00
9446;DHT22;4761;49.490;10.908;2022-10-16T12:37:34;21.40;66.90
9446;DHT22;4761;49.490;10.908;2022-10-16T12:40:15;21.50;67.00
9446;DHT22;4761;49.490;10.908;2022-10-16T12:42:48;21.40;67.00
9446;DHT22;4761;49.490;10.908;2022-10-16T12:45:32;21.40;67.00
9446;DHT22;4761;49.490;10.908;2022-10-16T12:48:01;21.40;67.10
9446;DHT22;4761;49.490;10.908;2022-10-16T12:50:31;21.40;67.10
9446;DHT22;4761;49.490;10.908;2022-10-16T12:52:58;21.40;67.20
9446;DHT22;4761;49.490;10.908;2022-10-16T12:55:25;21.40;67.20
9446;DHT22;4761;49.490;10.908;2022-10-16T13:06:47;21.40;67.30
9446;DHT22;4761;49.490;10.908;2022-10-16T13:15:22;21.50;67.20
9446;DHT22;4761;49.490;10.908;2022-10-16T13:18:09;21.60;67.10
9446;DHT22;4761;49.490;10.908;2022-10-16T13:26:41;21.70;66.90
9446;DHT22;4761;49.490;10.908;2022-10-16T13:29:09;21.70;66.70
9446;DHT22;4761;49.490;10.908;2022-10-16T13:31:37;21.70;66.60
9446;DHT22;4761;49.490;10.908;2022-10-16T13:34:05;21.70;66.50
9446;DHT22;4761;49.490;10.908;2022-10-16T13:36:43;21.70;66.50
9446;DHT22;4761;49.490;10.908;2022-10-16T13:39:15;21.70;66.60
9446;DHT22;4761;49.490;10.908;2022-10-16T13:41:43;21.70;66.60
9446;DHT22;4761;49.490;10.908;2022-10-16T13:44:15;21.70;66.50
9446;DHT22;4761;49.490;10.908;2022-10-16T13:46:42;21.70;66.50
9446;DHT22;4761;49.490;10.908;2022-10-16T13:49:16;21.70;66.60
9446;DHT22;4761;49.490;10.908;2022-10-16T13:51:54;21.70;66.50
9446;DHT22;4761;49.490;10.908;2022-10-16T13:54:20;21.70;66.40
9446;DHT22;4761;49.490;10.908;2022-10-16T13:56:45;21.70;66.40
9446;DHT22;4761;49.490;10.908;2022-10-16T13:59:25;21.70;66.40
9446;DHT22;4761;49.490;10.908;2022-10-16T14:01:53;21.70;66.40
9446;DHT22;4761;49.490;10.908;2022-10-16T14:04:20;21.80;66.50
9446;DHT22;4761;49.490;10.908;2022-10-16T14:06:50;21.70;66.50
9446;DHT22;4761;49.490;10.908;2022-10-16T14:09:28;21.70;66.50
9446;DHT22;4761;49.490;10.908;2022-10-16T14:12:01;21.70;66.50
9446;DHT22;4761;49.490;10.908;2022-10-16T14:14:33;21.80;66.50
9446;DHT22;4761;49.490;10.908;2022-10-16T14:16:59;21.80;66.60
9446;DHT22;4761;49.490;10.908;2022-10-16T14:19:27;21.80;66.40
9446;DHT22;4761;49.490;10.908;2022-10-16T14:21:54;21.80;66.40
9446;DHT22;4761;49.490;10.908;2022-10-16T14:24:31;21.80;66.30
9446;DHT22;4761;49.490;10.908;2022-10-16T14:26:57;21.80;66.30
9446;DHT22;4761;49.490;10.908;2022-10-16T14:29:25;21.70;66.20
9446;DHT22;4761;49.490;10.908;2022-10-16T14:32:02;21.80;66.40
9446;DHT22;4761;49.490;10.908;2022-10-16T14:34:36;21.80;66.30
9446;DHT22;4761;49.490;10.908;2022-10-16T14:37:24;21.70;66.30
9446;DHT22;4761;49.490;10.908;2022-10-16T14:39:51;21.70;66.40
9446;DHT22;4761;49.490;10.908;2022-10-16T14:42:18;21.70;66.50
9446;DHT22;4761;49.490;10.908;2022-10-16T14:44:45;21.70;66.60
9446;DHT22;4761;49.490;10.908;2022-10-16T14:47:15;21.70;66.70
9446;DHT22;4761;49.490;10.908;2022-10-16T14:49:42;21.70;66.60
9446;DHT22;4761;49.490;10.908;2022-10-16T14:52:12;21.70;66.70
9446;DHT22;4761;49.490;10.908;2022-10-16T14:54:37;21.70;66.80
9446;DHT22;4761;49.490;10.908;2022-10-16T14:57:03;21.70;66.90
9446;DHT22;4761;49.490;10.908;2022-10-16T14:59:37;21.60;66.80
9446;DHT22;4761;49.490;10.908;2022-10-16T15:04:45;21.60;66.90
9446;DHT22;4761;49.490;10.908;2022-10-16T15:07:11;21.60;67.00
9446;DHT22;4761;49.490;10.908;2022-10-16T15:09:36;21.60;67.20
9446;DHT22;4761;49.490;10.908;2022-10-16T15:12:02;21.60;67.30
9446;DHT22;4761;49.490;10.908;2022-10-16T15:14:27;21.60;67.40
9446;DHT22;4761;49.490;10.908;2022-10-16T15:16:53;21.60;67.40
9446;DHT22;4761;49.490;10.908;2022-10-16T15:19:18;21.60;67.50
9446;DHT22;4761;49.490;10.908;2022-10-16T15:21:44;21.60;67.50
9446;DHT22;4761;49.490;10.908;2022-10-16T15:24:12;21.60;67.60
9446;DHT22;4761;49.490;10.908;2022-10-16T15:26:38;21.60;67.70
9446;DHT22;4761;49.490;10.908;2022-10-16T15:29:04;21.50;67.60
9446;DHT22;4761;49.490;10.908;2022-10-16T15:31:30;21.60;67.70
9446;DHT22;4761;49.490;10.908;2022-10-16T15:33:56;21.50;67.70
9446;DHT22;4761;49.490;10.908;2022-10-16T15:36:28;21.50;67.70
9446;DHT22;4761;49.490;10.908;2022-10-16T15:38:54;21.50;67.80
9446;DHT22;4761;49.490;10.908;2022-10-16T15:41:21;21.50;67.90
9446;DHT22;4761;49.490;10.908;2022-10-16T15:43:48;21.50;68.00
9446;DHT22;4761;49.490;10.908;2022-10-16T15:46:17;21.50;68.00
9446;DHT22;4761;49.490;10.908;2022-10-16T15:48:42;21.50;68.00
9446;DHT22;4761;49.490;10.908;2022-10-16T15:51:08;21.50;68.10
9446;DHT22;4761;49.490;10.908;2022-10-16T15:53:34;21.50;68.10
9446;DHT22;4761;49.490;10.908;2022-10-16T15:56:08;21.50;68.30
9446;DHT22;4761;49.490;10.908;2022-10-16T15:58:34;21.50;68.20
9446;DHT22;4761;49.490;10.908;2022-10-16T16:01:00;21.40;68.20
9446;DHT22;4761;49.490;10.908;2022-10-16T16:03:27;21.40;68.20
9446;DHT22;4761;49.490;10.908;2022-10-16T16:05:54;21.50;68.30
9446;DHT22;4761;49.490;10.908;2022-10-16T16:08:20;21.40;68.30
9446;DHT22;4761;49.490;10.908;2022-10-16T16:10:46;21.40;68.50
9446;DHT22;4761;49.490;10.908;2022-10-16T16:13:21;21.40;68.50
9446;DHT22;4761;49.490;10.908;2022-10-16T16:15:47;21.40;68.50
9446;DHT22;4761;49.490;10.908;2022-10-16T16:18:13;21.40;68.60
9446;DHT22;4761;49.490;10.908;2022-10-16T16:20:38;21.30;68.50
9446;DHT22;4761;49.490;10.908;2022-10-16T16:23:04;21.30;68.50
9446;DHT22;4761;49.490;10.908;2022-10-16T16:25:29;21.30;68.60
9446;DHT22;4761;49.490;10.908;2022-10-16T16:27:55;21.30;68.70
9446;DHT22;4761;49.490;10.908;2022-10-16T16:30:20;21.30;68.80
9446;DHT22;4761;49.490;10.908;2022-10-16T16:32:46;21.30;68.90
9446;DHT22;4761;49.490;10.908;2022-10-16T16:35:11;21.30;68.80
9446;DHT22;4761;49.490;10.908;2022-10-16T16:37:37;21.30;68.80
9446;DHT22;4761;49.490;10.908;2022-10-16T16:40:03;21.30;68.80
9446;DHT22;4761;49.490;10.908;2022-10-16T16:42:28;21.30;68.80
9446;DHT22;4761;49.490;10.908;2022-10-16T16:44:54;21.40;68.90
9446;DHT22;4761;49.490;10.908;2022-10-16T16:47:20;21.50;68.50
9446;DHT22;4761;49.490;10.908;2022-10-16T16:49:45;21.40;68.50
9446;DHT22;4761;49.490;10.908;2022-10-16T16:52:12;21.40;68.50
9446;DHT22;4761;49.490;10.908;2022-10-16T16:54:38;21.50;68.60
9446;DHT22;4761;49.490;10.908;2022-10-16T16:57:03;21.40;68.50
9446;DHT22;4761;49.490;10.908;2022-10-16T16:59:29;21.40;68.60
9446;DHT22;4761;49.490;10.908;2022-10-16T17:01:58;21.40;68.70
9446;DHT22;4761;49.490;10.908;2022-10-16T17:04:24;21.40;68.90
9446;DHT22;4761;49.490;10.908;2022-10-16T17:06:50;21.30;68.70
9446;DHT22;4761;49.490;10.908;2022-10-16T17:09:15;21.30;68.80
9446;DHT22;4761;49.490;10.908;2022-10-16T17:11:41;21.30;68.80
9446;DHT22;4761;49.490;10.908;2022-10-16T17:14:08;21.40;68.90
9446;DHT22;4761;49.490;10.908;2022-10-16T17:16:36;21.30;68.80
9446;DHT22;4761;49.490;10.908;2022-10-16T17:19:05;21.30;68.80
9446;DHT22;4761;49.490;10.908;2022-10-16T17:21:31;21.30;68.90
9446;DHT22;4761;49.490;10.908;2022-10-16T17:23:57;21.30;69.00
9446;DHT22;4761;49.490;10.908;2022-10-16T17:26:24;21.30;69.00
9446;DHT22;4761;49.490;10.908;2022-10-16T17:28:55;21.30;68.90
9446;DHT22;4761;49.490;10.908;2022-10-16T17:31:24;21.30;68.90